sensor_id;sensor_type;location;lat;lon;timestamp;pressure;altitude;pressure_sealevel;temperature;humidity
44920;BME280;30655;53.094;6.072;2022-09-09T00:23:43;100774.66;;;15.46;96.29
44920;BME280;30655;53.094;6.072;2022-09-09T00:57:02;100760.81;;;15.29;96.82
44920;BME280;30655;53.094;6.072;2022-09-09T01:17:23;100562.03;;;14.01;96.37
44920;BME280;30655;53.094;6.072;2022-09-09T01:20:55;100560.41;;;14.00;96.41
44920;BME280;30655;53.094;6.072;2022-09-09T01:30:45;100617.94;;;14.40;96.81
44920;BME280;30655;53.094;6.072;2022-09-09T01:33:26;100662.38;;;14.81;96.51
44920;BME280;30655;53.094;6.072;2022-09-09T01:39:51;100749.44;;;15.41;96.80
44920;BME280;30655;53.094;6.072;2022-09-09T01:53:19;100746.72;;;15.41;96.63
44920;BME280;30655;53.094;6.072;2022-09-09T02:03:08;100761.44;;;15.40;96.89
44920;BME280;30655;53.094;6.072;2022-09-09T02:12:43;100747.53;;;15.41;96.98
44920;BME280;30655;53.094;6.072;2022-09-09T02:17:45;100744.59;;;15.38;97.38
44920;BME280;30655;53.094;6.072;2022-09-09T02:37:42;100681.84;;;14.88;97.57
44920;BME280;30655;53.094;6.072;2022-09-09T02:40:52;100659.75;;;14.76;97.15
44920;BME280;30655;53.094;6.072;2022-09-09T02:47:18;100629.88;;;14.57;97.42
44920;BME280;30655;53.094;6.072;2022-09-09T02:50:09;100716.34;;;15.06;97.66
44920;BME280;30655;53.094;6.072;2022-09-09T03:08:54;100755.59;;;15.33;97.83
44920;BME280;30655;53.094;6.072;2022-09-09T03:11:37;100693.03;;;15.00;97.90
44920;BME280;30655;53.094;6.072;2022-09-09T03:17:54;100734.41;;;15.30;97.66
44920;BME280;30655;53.094;6.072;2022-09-09T03:21:07;100741.16;;;15.32;97.89
44920;BME280;30655;53.094;6.072;2022-09-09T03:41:30;100553.13;;;14.14;98.21
44920;BME280;30655;53.094;6.072;2022-09-09T03:50:55;100725.94;;;15.31;98.91
44920;BME280;30655;53.094;6.072;2022-09-09T03:52:20;100561.69;;;14.21;98.52
44920;BME280;30655;53.094;6.072;2022-09-09T03:55:27;100731.56;;;15.35;98.78
44920;BME280;30655;53.094;6.072;2022-09-09T03:58:55;100738.44;;;15.32;98.74
44920;BME280;30655;53.094;6.072;2022-09-09T04:02:11;100655.53;;;14.84;98.50
44920;BME280;30655;53.094;6.072;2022-09-09T04:05:15;100573.81;;;14.29;98.12
44920;BME280;30655;53.094;6.072;2022-09-09T04:08:24;100697.47;;;15.10;98.83
44920;BME280;30655;53.094;6.072;2022-09-09T04:11:19;100566.56;;;14.25;99.21
44920;BME280;30655;53.094;6.072;2022-09-09T04:17:37;100689.63;;;15.08;99.17
44920;BME280;30655;53.094;6.072;2022-09-09T04:24:17;100735.22;;;15.30;99.78
44920;BME280;30655;53.094;6.072;2022-09-09T04:27:07;100687.50;;;15.05;99.56
44920;BME280;30655;53.094;6.072;2022-09-09T04:33:48;100532.22;;;13.96;100.00
44920;BME280;30655;53.094;6.072;2022-09-09T04:36:59;100578.81;;;14.22;100.00
44920;BME280;30655;53.094;6.072;2022-09-09T04:40:00;100734.41;;;15.30;100.00
44920;BME280;30655;53.094;6.072;2022-09-09T04:43:07;100616.75;;;14.46;100.00
44920;BME280;30655;53.094;6.072;2022-09-09T04:47:19;100740.47;;;15.27;100.00
44920;BME280;30655;53.094;6.072;2022-09-09T05:05:52;100740.88;;;15.34;100.00
44920;BME280;30655;53.094;6.072;2022-09-09T05:09:11;100744.09;;;15.36;100.00
44920;BME280;30655;53.094;6.072;2022-09-09T05:16:13;100748.72;;;15.35;100.00
44920;BME280;30655;53.094;6.072;2022-09-09T05:26:22;100558.56;;;14.14;100.00
44920;BME280;30655;53.094;6.072;2022-09-09T05:33:20;100752.06;;;15.32;100.00
44920;BME280;30655;53.094;6.072;2022-09-09T05:41:10;100595.75;;;14.33;100.00
44920;BME280;30655;53.094;6.072;2022-09-09T05:50:06;100711.41;;;15.08;100.00
44920;BME280;30655;53.094;6.072;2022-09-09T05:53:22;100572.44;;;14.13;100.00
44920;BME280;30655;53.094;6.072;2022-09-09T06:00:34;100585.06;;;14.22;100.00
44920;BME280;30655;53.094;6.072;2022-09-09T06:04:30;100698.47;;;15.00;100.00
44920;BME280;30655;53.094;6.072;2022-09-09T06:10:40;100720.69;;;15.21;100.00
44920;BME280;30655;53.094;6.072;2022-09-09T06:16:22;100572.75;;;14.25;100.00
44920;BME280;30655;53.094;6.072;2022-09-09T07:00:43;100744.94;;;15.77;100.00
44920;BME280;30655;53.094;6.072;2022-09-09T07:10:42;100585.97;;;14.64;100.00
44920;BME280;30655;53.094;6.072;2022-09-09T07:29:02;100684.38;;;15.67;99.87
44920;BME280;30655;53.094;6.072;2022-09-09T07:31:45;100749.91;;;16.11;100.00
44920;BME280;30655;53.094;6.072;2022-09-09T07:34:32;100690.91;;;15.79;99.43
44920;BME280;30655;53.094;6.072;2022-09-09T07:37:36;100707.56;;;15.91;99.58
44920;BME280;30655;53.094;6.072;2022-09-09T07:40:18;100570.34;;;15.11;99.46
44920;BME280;30655;53.094;6.072;2022-09-09T07:49:51;100685.97;;;15.81;99.14
44920;BME280;30655;53.094;6.072;2022-09-09T07:52:43;100720.63;;;16.17;99.28
44920;BME280;30655;53.094;6.072;2022-09-09T07:58:47;100750.84;;;16.43;99.22
44920;BME280;30655;53.094;6.072;2022-09-09T08:01:46;100722.00;;;16.28;99.11
44920;BME280;30655;53.094;6.072;2022-09-09T08:04:39;100715.03;;;16.22;99.17
44920;BME280;30655;53.094;6.072;2022-09-09T08:11:19;100604.06;;;15.64;98.49
44920;BME280;30655;53.094;6.072;2022-09-09T08:14:03;100604.44;;;15.71;98.62
44920;BME280;30655;53.094;6.072;2022-09-09T08:17:09;100762.59;;;16.65;98.30
44920;BME280;30655;53.094;6.072;2022-09-09T08:19:47;100697.91;;;16.44;98.50
44920;BME280;30655;53.094;6.072;2022-09-09T08:22:52;100690.63;;;16.39;98.26
44920;BME280;30655;53.094;6.072;2022-09-09T08:25:50;100680.22;;;16.41;98.03
44920;BME280;30655;53.094;6.072;2022-09-09T08:28:59;100738.16;;;16.83;97.71
44920;BME280;30655;53.094;6.072;2022-09-09T08:34:28;100761.88;;;17.04;97.17
44920;BME280;30655;53.094;6.072;2022-09-09T08:40:05;100761.88;;;17.04;97.32
44920;BME280;30655;53.094;6.072;2022-09-09T08:40:46;100763.41;;;17.19;97.45
44920;BME280;30655;53.094;6.072;2022-09-09T08:43:28;100728.28;;;17.04;97.19
44920;BME280;30655;53.094;6.072;2022-09-09T08:49:49;100725.53;;;17.26;96.53
44920;BME280;30655;53.094;6.072;2022-09-09T08:52:37;100711.38;;;17.24;96.47
44920;BME280;30655;53.094;6.072;2022-09-09T08:55:57;100734.00;;;17.55;95.50
44920;BME280;30655;53.094;6.072;2022-09-09T08:58:29;100703.25;;;17.41;95.83
44920;BME280;30655;53.094;6.072;2022-09-09T09:04:20;100618.75;;;16.97;94.17
44920;BME280;30655;53.094;6.072;2022-09-09T09:07:09;100637.06;;;17.05;94.36
44920;BME280;30655;53.094;6.072;2022-09-09T09:10:08;100627.41;;;16.99;93.49
44920;BME280;30655;53.094;6.072;2022-09-09T09:12:58;100656.00;;;17.41;93.87
44920;BME280;30655;53.094;6.072;2022-09-09T09:15:52;100712.88;;;17.87;94.21
44920;BME280;30655;53.094;6.072;2022-09-09T09:18:42;100784.03;;;18.38;93.30
44920;BME280;30655;53.094;6.072;2022-09-09T09:21:50;100800.28;;;18.43;92.53
44920;BME280;30655;53.094;6.072;2022-09-09T09:24:59;100671.03;;;17.69;92.11
44920;BME280;30655;53.094;6.072;2022-09-09T09:27:38;100615.00;;;17.49;91.86
44920;BME280;30655;53.094;6.072;2022-09-09T09:30:31;100679.09;;;17.83;90.69
44920;BME280;30655;53.094;6.072;2022-09-09T09:33:47;100747.03;;;18.32;89.93
44920;BME280;30655;53.094;6.072;2022-09-09T09:39:52;100731.88;;;18.35;90.22
44920;BME280;30655;53.094;6.072;2022-09-09T09:45:52;100654.66;;;17.78;88.86
44920;BME280;30655;53.094;6.072;2022-09-09T09:48:41;100628.91;;;17.61;89.04
44920;BME280;30655;53.094;6.072;2022-09-09T09:51:16;100801.94;;;18.79;88.58
44920;BME280;30655;53.094;6.072;2022-09-09T09:53:47;100710.16;;;18.21;88.77
44920;BME280;30655;53.094;6.072;2022-09-09T09:59:59;100819.50;;;18.95;86.74
44920;BME280;30655;53.094;6.072;2022-09-09T10:03:02;100643.38;;;18.14;86.20
44920;BME280;30655;53.094;6.072;2022-09-09T10:05:58;100654.47;;;18.34;86.45
44920;BME280;30655;53.094;6.072;2022-09-09T10:08:44;100658.00;;;18.52;85.15
44920;BME280;30655;53.094;6.072;2022-09-09T10:11:30;100766.09;;;19.27;84.86
44920;BME280;30655;53.094;6.072;2022-09-09T10:14:11;100675.09;;;18.58;83.91
44920;BME280;30655;53.094;6.072;2022-09-09T10:17:32;100777.38;;;19.25;84.20
44920;BME280;30655;53.094;6.072;2022-09-09T10:21:12;100796.06;;;19.32;82.67
44920;BME280;30655;53.094;6.072;2022-09-09T10:24:13;100691.81;;;18.47;81.96
44920;BME280;30655;53.094;6.072;2022-09-09T10:29:09;100819.78;;;19.19;82.76
44920;BME280;30655;53.094;6.072;2022-09-09T10:30:50;100809.47;;;19.16;83.09
44920;BME280;30655;53.094;6.072;2022-09-09T10:33:55;100811.19;;;19.29;83.28
44920;BME280;30655;53.094;6.072;2022-09-09T10:40:12;100646.25;;;19.07;82.19
44920;BME280;30655;53.094;6.072;2022-09-09T10:43:42;100640.53;;;19.20;80.84
44920;BME280;30655;53.094;6.072;2022-09-09T10:50:01;100725.16;;;19.89;75.28
44920;BME280;30655;53.094;6.072;2022-09-09T10:53:33;100727.25;;;20.13;76.87
44920;BME280;30655;53.094;6.072;2022-09-09T10:56:23;100805.28;;;20.53;77.24
44920;BME280;30655;53.094;6.072;2022-09-09T10:59:22;100731.06;;;20.20;77.05
44920;BME280;30655;53.094;6.072;2022-09-09T11:18:36;100799.81;;;22.93;72.24
44920;BME280;30655;53.094;6.072;2022-09-09T11:21:19;100644.75;;;22.09;70.81
44920;BME280;30655;53.094;6.072;2022-09-09T11:45:27;100666.75;;;20.09;69.65
44920;BME280;30655;53.094;6.072;2022-09-09T11:48:21;100774.09;;;20.91;71.93
44920;BME280;30655;53.094;6.072;2022-09-09T11:51:27;100773.28;;;20.90;72.41
44920;BME280;30655;53.094;6.072;2022-09-09T11:57:14;100654.84;;;20.05;71.45
44920;BME280;30655;53.094;6.072;2022-09-09T12:08:04;100635.94;;;20.45;72.12
44920;BME280;30655;53.094;6.072;2022-09-09T12:11:25;100698.22;;;21.11;71.88
44920;BME280;30655;53.094;6.072;2022-09-09T12:14:53;100756.00;;;21.35;71.13
44920;BME280;30655;53.094;6.072;2022-09-09T12:18:23;100797.50;;;21.78;71.81
44920;BME280;30655;53.094;6.072;2022-09-09T12:21:27;100756.13;;;21.63;71.50
44920;BME280;30655;53.094;6.072;2022-09-09T12:34:47;100743.50;;;20.92;71.65
44920;BME280;30655;53.094;6.072;2022-09-09T12:38:02;100614.16;;;20.07;71.36
44920;BME280;30655;53.094;6.072;2022-09-09T12:41:01;100631.38;;;20.29;71.09
44920;BME280;30655;53.094;6.072;2022-09-09T12:43:44;100697.00;;;20.87;70.79
44920;BME280;30655;53.094;6.072;2022-09-09T12:46:20;100755.75;;;21.28;69.94
44920;BME280;30655;53.094;6.072;2022-09-09T12:48:49;100761.72;;;21.42;69.62
44920;BME280;30655;53.094;6.072;2022-09-09T12:51:19;100767.00;;;21.35;68.90
44920;BME280;30655;53.094;6.072;2022-09-09T12:53:47;100763.56;;;21.38;68.68
44920;BME280;30655;53.094;6.072;2022-09-09T12:56:20;100765.63;;;21.41;68.40
44920;BME280;30655;53.094;6.072;2022-09-09T12:58:52;100753.59;;;21.33;68.58
44920;BME280;30655;53.094;6.072;2022-09-09T13:01:22;100761.25;;;21.28;68.30
44920;BME280;30655;53.094;6.072;2022-09-09T13:03:50;100751.75;;;21.25;67.92
44920;BME280;30655;53.094;6.072;2022-09-09T13:06:24;100726.03;;;21.09;68.46
44920;BME280;30655;53.094;6.072;2022-09-09T13:08:56;100748.81;;;21.10;68.61
44920;BME280;30655;53.094;6.072;2022-09-09T13:11:26;100787.59;;;21.17;69.51
44920;BME280;30655;53.094;6.072;2022-09-09T13:13:56;100786.25;;;21.02;71.75
44920;BME280;30655;53.094;6.072;2022-09-09T13:16:26;100749.63;;;20.77;74.68
44920;BME280;30655;53.094;6.072;2022-09-09T13:18:54;100746.47;;;20.87;76.34
44920;BME280;30655;53.094;6.072;2022-09-09T13:21:31;100762.84;;;21.17;78.88
44920;BME280;30655;53.094;6.072;2022-09-09T13:23:59;100761.97;;;21.49;78.19
44920;BME280;30655;53.094;6.072;2022-09-09T13:26:27;100764.59;;;21.82;78.50
44920;BME280;30655;53.094;6.072;2022-09-09T13:29:08;100744.56;;;21.94;77.67
44920;BME280;30655;53.094;6.072;2022-09-09T13:31:41;100754.53;;;22.10;75.85
44920;BME280;30655;53.094;6.072;2022-09-09T13:34:11;100742.47;;;21.78;74.99
44920;BME280;30655;53.094;6.072;2022-09-09T13:36:38;100758.31;;;21.69;75.49
44920;BME280;30655;53.094;6.072;2022-09-09T13:39:14;100739.03;;;21.33;75.80
44920;BME280;30655;53.094;6.072;2022-09-09T13:41:43;100756.44;;;21.25;76.24
44920;BME280;30655;53.094;6.072;2022-09-09T13:44:20;100753.91;;;21.20;76.65
44920;BME280;30655;53.094;6.072;2022-09-09T13:46:47;100754.16;;;21.27;78.00
44920;BME280;30655;53.094;6.072;2022-09-09T13:49:20;100755.44;;;21.41;78.48
44920;BME280;30655;53.094;6.072;2022-09-09T13:51:49;100751.44;;;21.63;79.13
44920;BME280;30655;53.094;6.072;2022-09-09T13:54:17;100749.13;;;21.89;78.67
44920;BME280;30655;53.094;6.072;2022-09-09T13:56:45;100739.84;;;22.06;77.86
44920;BME280;30655;53.094;6.072;2022-09-09T13:59:13;100755.66;;;22.49;77.29
44920;BME280;30655;53.094;6.072;2022-09-09T14:01:42;100742.03;;;22.68;75.98
44920;BME280;30655;53.094;6.072;2022-09-09T14:04:09;100723.41;;;22.78;73.90
44920;BME280;30655;53.094;6.072;2022-09-09T14:06:37;100741.78;;;22.86;73.05
44920;BME280;30655;53.094;6.072;2022-09-09T14:09:04;100746.66;;;22.64;71.13
44920;BME280;30655;53.094;6.072;2022-09-09T14:11:31;100747.50;;;22.25;71.99
44920;BME280;30655;53.094;6.072;2022-09-09T14:13:59;100732.06;;;21.96;71.61
44920;BME280;30655;53.094;6.072;2022-09-09T14:16:26;100745.59;;;22.01;72.61
44920;BME280;30655;53.094;6.072;2022-09-09T14:18:56;100749.00;;;22.10;73.17
44920;BME280;30655;53.094;6.072;2022-09-09T14:21:30;100713.94;;;21.95;73.41
44920;BME280;30655;53.094;6.072;2022-09-09T14:24:12;100758.75;;;22.20;72.82
44920;BME280;30655;53.094;6.072;2022-09-09T14:27:22;100574.13;;;21.21;71.53
44920;BME280;30655;53.094;6.072;2022-09-09T14:30:21;100701.00;;;22.36;69.56
44920;BME280;30655;53.094;6.072;2022-09-09T14:40:25;100731.41;;;23.57;64.72
44920;BME280;30655;53.094;6.072;2022-09-09T14:43:45;100597.25;;;22.55;62.88
44920;BME280;30655;53.094;6.072;2022-09-09T15:00:29;100715.22;;;21.61;70.90
44920;BME280;30655;53.094;6.072;2022-09-09T15:03:11;100606.69;;;20.61;71.21
44920;BME280;30655;53.094;6.072;2022-09-09T15:09:16;100740.31;;;20.90;72.09
44920;BME280;30655;53.094;6.072;2022-09-09T15:32:51;100734.06;;;19.10;77.87
44920;BME280;30655;53.094;6.072;2022-09-09T15:35:47;100609.56;;;18.18;78.35
44920;BME280;30655;53.094;6.072;2022-09-09T15:38:38;100679.91;;;18.61;78.91
44920;BME280;30655;53.094;6.072;2022-09-09T15:58:52;100630.34;;;18.19;82.09
44920;BME280;30655;53.094;6.072;2022-09-09T16:08:31;100741.97;;;19.03;82.20
44920;BME280;30655;53.094;6.072;2022-09-09T16:11:32;100736.97;;;19.05;81.99
44920;BME280;30655;53.094;6.072;2022-09-09T16:22:04;100751.31;;;19.11;82.95
44920;BME280;30655;53.094;6.072;2022-09-09T16:31:44;100765.19;;;19.06;83.64
44920;BME280;30655;53.094;6.072;2022-09-09T16:34:34;100643.34;;;18.39;83.75
44920;BME280;30655;53.094;6.072;2022-09-09T16:37:40;100778.56;;;19.07;84.07
44920;BME280;30655;53.094;6.072;2022-09-09T16:40:31;100720.28;;;18.81;84.30
44920;BME280;30655;53.094;6.072;2022-09-09T16:54:30;100673.13;;;18.24;86.34
44920;BME280;30655;53.094;6.072;2022-09-09T16:57:33;100750.25;;;18.69;86.17
44920;BME280;30655;53.094;6.072;2022-09-09T17:00:25;100776.66;;;18.82;86.40
44920;BME280;30655;53.094;6.072;2022-09-09T17:03:34;100712.25;;;18.41;86.15
44920;BME280;30655;53.094;6.072;2022-09-09T17:06:45;100776.00;;;18.85;86.20
44920;BME280;30655;53.094;6.072;2022-09-09T17:10:49;100780.69;;;18.84;86.12
44920;BME280;30655;53.094;6.072;2022-09-09T17:24:51;100788.09;;;18.75;86.34
44920;BME280;30655;53.094;6.072;2022-09-09T17:34:17;100640.34;;;17.72;87.92
44920;BME280;30655;53.094;6.072;2022-09-09T17:37:03;100799.06;;;18.75;87.57
44920;BME280;30655;53.094;6.072;2022-09-09T17:40:28;100744.13;;;18.37;87.43
44920;BME280;30655;53.094;6.072;2022-09-09T17:43:34;100777.81;;;18.55;87.83
44920;BME280;30655;53.094;6.072;2022-09-09T17:46:34;100740.91;;;18.35;88.09
44920;BME280;30655;53.094;6.072;2022-09-09T18:13:49;100766.00;;;18.03;88.95
44920;BME280;30655;53.094;6.072;2022-09-09T18:16:53;100671.88;;;17.39;88.67
44920;BME280;30655;53.094;6.072;2022-09-09T19:24:11;100716.66;;;16.90;91.33
44920;BME280;30655;53.094;6.072;2022-09-09T19:27:30;100883.38;;;17.91;91.35
44920;BME280;30655;53.094;6.072;2022-09-09T19:30:20;100695.56;;;16.73;91.10
44920;BME280;30655;53.094;6.072;2022-09-09T19:33:29;100735.03;;;16.98;91.25
44920;BME280;30655;53.094;6.072;2022-09-09T19:36:25;100850.28;;;17.61;91.88
44920;BME280;30655;53.094;6.072;2022-09-09T19:39:28;100726.44;;;16.82;91.64
44920;BME280;30655;53.094;6.072;2022-09-09T19:42:15;100837.44;;;17.62;91.81
44920;BME280;30655;53.094;6.072;2022-09-09T19:45:25;100838.47;;;17.52;91.87
44920;BME280;30655;53.094;6.072;2022-09-09T19:51:44;100804.50;;;17.14;92.42
44920;BME280;30655;53.094;6.072;2022-09-09T19:57:38;100742.25;;;16.71;92.32
44920;BME280;30655;53.094;6.072;2022-09-09T20:00:40;100883.44;;;17.69;92.19
44920;BME280;30655;53.094;6.072;2022-09-09T20:03:31;100843.88;;;17.44;92.29
44920;BME280;30655;53.094;6.072;2022-09-09T20:06:20;100865.16;;;17.55;92.21
44920;BME280;30655;53.094;6.072;2022-09-09T20:10:11;100886.16;;;17.69;92.15
44920;BME280;30655;53.094;6.072;2022-09-09T20:12:35;100724.03;;;16.58;92.29
44920;BME280;30655;53.094;6.072;2022-09-09T20:15:39;100883.19;;;17.56;92.57
44920;BME280;30655;53.094;6.072;2022-09-09T20:18:40;100756.53;;;16.68;92.15
44920;BME280;30655;53.094;6.072;2022-09-09T20:21:38;100737.88;;;16.48;93.08
44920;BME280;30655;53.094;6.072;2022-09-09T20:27:52;100859.63;;;17.16;93.16
44920;BME280;30655;53.094;6.072;2022-09-09T20:30:39;100704.63;;;16.24;92.68
44920;BME280;30655;53.094;6.072;2022-09-09T20:33:35;100883.19;;;17.34;92.94
44920;BME280;30655;53.094;6.072;2022-09-09T20:36:40;100816.38;;;16.87;92.67
44920;BME280;30655;53.094;6.072;2022-09-09T20:39:35;100841.88;;;17.05;92.65
44920;BME280;30655;53.094;6.072;2022-09-09T20:42:46;100752.06;;;16.36;92.81
44920;BME280;30655;53.094;6.072;2022-09-09T20:45:52;100802.34;;;16.44;92.99
44920;BME280;30655;53.094;6.072;2022-09-09T20:48:39;100723.16;;;16.00;92.67
44920;BME280;30655;53.094;6.072;2022-09-09T20:51:35;100754.97;;;16.18;92.83
44920;BME280;30655;53.094;6.072;2022-09-09T20:54:31;100845.34;;;16.74;92.83
44920;BME280;30655;53.094;6.072;2022-09-09T20:57:16;100728.94;;;15.98;92.90
44920;BME280;30655;53.094;6.072;2022-09-09T21:00:24;100743.28;;;16.04;92.76
44920;BME280;30655;53.094;6.072;2022-09-09T21:03:34;100874.19;;;16.89;93.25
44920;BME280;30655;53.094;6.072;2022-09-09T21:09:43;100738.63;;;15.90;92.73
44920;BME280;30655;53.094;6.072;2022-09-09T21:15:38;100724.97;;;15.68;93.02
44920;BME280;30655;53.094;6.072;2022-09-09T21:18:33;100765.78;;;15.96;93.05
44920;BME280;30655;53.094;6.072;2022-09-09T21:21:44;100901.72;;;16.79;93.16
44920;BME280;30655;53.094;6.072;2022-09-09T21:25:04;100869.03;;;16.52;93.41
44920;BME280;30655;53.094;6.072;2022-09-09T21:27:54;100907.00;;;16.75;93.57
44920;BME280;30655;53.094;6.072;2022-09-09T21:30:48;100802.22;;;16.00;93.30
44920;BME280;30655;53.094;6.072;2022-09-09T21:40:07;100749.84;;;15.48;93.70
44920;BME280;30655;53.094;6.072;2022-09-09T21:43:05;100738.84;;;15.39;93.72
44920;BME280;30655;53.094;6.072;2022-09-09T21:46:28;100873.09;;;16.27;93.80
44920;BME280;30655;53.094;6.072;2022-09-09T21:49:02;100914.09;;;16.49;93.95
44920;BME280;30655;53.094;6.072;2022-09-09T21:55:22;100807.72;;;15.72;93.80
44920;BME280;30655;53.094;6.072;2022-09-09T21:58:44;100934.91;;;16.45;93.98
44920;BME280;30655;53.094;6.072;2022-09-09T22:01:00;100852.44;;;15.99;93.89
44920;BME280;30655;53.094;6.072;2022-09-09T22:03:58;100914.53;;;16.43;93.88
44920;BME280;30655;53.094;6.072;2022-09-09T22:06:46;100847.66;;;15.90;93.98
44920;BME280;30655;53.094;6.072;2022-09-09T22:09:25;100875.34;;;16.11;93.82
44920;BME280;30655;53.094;6.072;2022-09-09T22:12:03;100864.53;;;16.06;94.16
44920;BME280;30655;53.094;6.072;2022-09-09T22:14:46;100846.66;;;15.86;94.04
44920;BME280;30655;53.094;6.072;2022-09-09T22:17:53;100800.09;;;15.42;94.16
44920;BME280;30655;53.094;6.072;2022-09-09T22:20:52;100920.97;;;16.19;94.36
44920;BME280;30655;53.094;6.072;2022-09-09T22:23:56;100843.81;;;15.64;94.55
44920;BME280;30655;53.094;6.072;2022-09-09T22:26:40;100931.97;;;16.14;94.88
44920;BME280;30655;53.094;6.072;2022-09-09T22:29:56;100791.28;;;15.18;94.71
44920;BME280;30655;53.094;6.072;2022-09-09T22:36:20;100818.75;;;15.48;94.66
44920;BME280;30655;53.094;6.072;2022-09-09T22:42:00;100937.44;;;16.14;94.89
44920;BME280;30655;53.094;6.072;2022-09-09T23:01:56;100778.94;;;15.06;94.93
44920;BME280;30655;53.094;6.072;2022-09-09T23:04:13;100946.94;;;16.17;94.95
44920;BME280;30655;53.094;6.072;2022-09-09T23:06:52;100943.69;;;16.15;94.78
44920;BME280;30655;53.094;6.072;2022-09-09T23:09:51;100956.03;;;16.12;94.92
44920;BME280;30655;53.094;6.072;2022-09-09T23:13:18;100949.25;;;16.10;94.99
44920;BME280;30655;53.094;6.072;2022-09-09T23:16:21;100821.13;;;15.23;94.98
44920;BME280;30655;53.094;6.072;2022-09-09T23:19:01;100959.56;;;16.13;95.35
44920;BME280;30655;53.094;6.072;2022-09-09T23:21:50;100757.03;;;14.84;95.18
44920;BME280;30655;53.094;6.072;2022-09-09T23:24:23;100783.19;;;15.13;95.43
44920;BME280;30655;53.094;6.072;2022-09-09T23:26:54;100949.69;;;16.17;95.68
44920;BME280;30655;53.094;6.072;2022-09-09T23:29:58;100918.16;;;15.97;95.48
44920;BME280;30655;53.094;6.072;2022-09-09T23:33:26;100768.84;;;14.93;95.77
44920;BME280;30655;53.094;6.072;2022-09-09T23:36:57;100921.97;;;15.96;95.58
44920;BME280;30655;53.094;6.072;2022-09-09T23:39:41;100829.41;;;15.31;95.38
44920;BME280;30655;53.094;6.072;2022-09-09T23:46:08;100963.22;;;16.22;95.90
44920;BME280;30655;53.094;6.072;2022-09-09T23:49:17;100840.50;;;15.35;95.99
44920;BME280;30655;53.094;6.072;2022-09-09T23:52:22;100970.28;;;16.23;96.24
44920;BME280;30655;53.094;6.072;2022-09-09T23:55:31;100915.13;;;15.99;95.91
44920;BME280;30655;53.094;6.072;2022-09-09T23:58:40;100933.41;;;16.12;96.18
